Time;durP1;ratioP1;P1;durP2;ratioP2;P2;SDS_P1;SDS_P2;PMS_P1;PMS_P2;Temp;Humidity;BMP_temperature;BMP_pressure;BME280_temperature;BME280_humidity;BME280_pressure;Samples;Min_cycle;Max_cycle;Signal;HPM_P1;HPM_P2
2021/11/04 00:00:34;;;;;;;7.28;6.60;;;8.70;99.90;;;8.94;77.12;100309.09;4824996;29;20050;-62
2021/11/04 00:03:04;;;;;;;45.03;7.65;;;8.60;99.90;;;8.88;77.00;100306.47;4825353;29;20071;-63
2021/11/04 00:05:33;;;;;;;8.02;7.22;;;8.60;99.90;;;8.80;77.20;100313.56;4825038;29;20115;-62
2021/11/04 00:08:04;;;;;;;13.77;6.63;;;8.50;99.90;;;8.61;77.45;100315.44;4808783;29;20055;-62
2021/11/04 00:10:35;;;;;;;8.27;7.25;;;8.40;99.90;;;8.40;78.48;100312.03;4825378;29;20057;-62
2021/11/04 00:13:04;;;;;;;8.77;7.95;;;8.20;99.90;;;8.40;79.59;100307.63;4825245;29;20046;-63
2021/11/04 00:15:33;;;;;;;10.32;9.05;;;8.10;99.90;;;8.48;79.46;100311.09;4825159;29;20073;-63
2021/11/04 00:18:02;;;;;;;9.90;8.68;;;8.10;99.90;;;8.51;79.10;100311.09;4825335;29;20078;-62
2021/11/04 00:20:31;;;;;;;9.15;7.38;;;8.20;99.90;;;8.54;78.68;100311.06;4824905;29;20493;-62
2021/11/04 00:23:01;;;;;;;8.13;7.43;;;8.30;99.90;;;8.58;78.83;100304.00;4825183;29;20103;-61
2021/11/04 00:25:30;;;;;;;8.15;7.45;;;8.30;99.90;;;8.61;78.46;100297.00;4824899;29;20516;-63
2021/11/04 00:28:00;;;;;;;7.85;7.05;;;8.30;99.90;;;8.63;78.13;100318.06;4808429;29;20142;-62
2021/11/04 00:30:31;;;;;;;7.90;7.20;;;8.30;99.90;;;8.68;77.63;100297.81;4825070;29;20046;-62
2021/11/04 00:33:00;;;;;;;7.50;6.90;;;8.40;99.90;;;8.78;77.44;100300.41;4824543;29;20569;-62
2021/11/04 00:35:28;;;;;;;7.28;6.72;;;8.40;99.90;;;8.60;76.75;100268.88;4824475;29;20573;-62
2021/11/04 00:38:01;;;;;;;7.30;6.60;;;8.50;99.90;;;8.80;76.46;100296.00;4808345;29;20061;-62
2021/11/04 00:40:30;;;;;;;7.40;6.20;;;8.50;99.90;;;8.82;76.05;100306.50;4823596;29;20078;-63
2021/11/04 00:43:00;;;;;;;8.27;7.47;;;8.50;99.90;;;8.88;76.15;100296.78;4824481;29;20046;-62
2021/11/04 00:45:29;;;;;;;7.28;6.57;;;8.60;99.90;;;9.00;76.76;100295.84;4824327;29;20062;-61
2021/11/04 00:47:58;;;;;;;7.72;7.07;;;8.70;99.90;;;9.09;76.51;100296.66;4824287;29;20069;-63
2021/11/04 00:50:27;;;;;;;8.27;7.47;;;8.80;99.90;;;9.20;75.94;100293.91;4823214;29;20069;-62
2021/11/04 00:52:56;;;;;;;8.13;7.13;;;8.90;99.90;;;9.19;75.33;100291.28;4807893;29;20572;-62
2021/11/04 00:55:24;;;;;;;6.82;6.22;;;8.90;99.90;;;9.17;75.69;100288.69;4824709;29;20374;-62
2021/11/04 00:57:53;;;;;;;7.35;6.65;;;8.90;99.90;;;9.20;75.08;100286.00;4824040;29;20577;-62
2021/11/04 01:00:23;;;;;;;7.57;6.88;;;8.90;99.90;;;9.13;75.49;100283.44;4823934;29;20126;-62
2021/11/04 01:02:51;;;;;;;7.20;6.60;;;8.80;99.90;;;9.04;74.58;100290.53;4824305;29;20062;-64
2021/11/04 01:05:20;;;;;;;6.68;6.18;;;8.80;99.90;;;9.18;74.75;100289.53;4823992;29;20066;-62
2021/11/04 01:07:48;;;;;;;8.95;8.15;;;8.80;99.90;;;9.20;74.21;100287.75;4823934;29;20115;-62
2021/11/04 01:10:17;;;;;;;8.20;7.38;;;8.90;99.90;;;9.09;74.94;100294.03;4824435;29;20542;-62
2021/11/04 01:12:46;;;;;;;8.75;7.95;;;8.80;99.90;;;9.03;76.38;100293.19;4823869;29;20057;-61
2021/11/04 01:15:14;;;;;;;7.88;7.07;;;8.80;99.90;;;8.94;75.51;100291.47;4823814;29;20090;-62
2021/11/04 01:17:44;;;;;;;7.30;6.60;;;8.70;99.90;;;8.71;75.44;100271.44;4824113;29;20097;-63
2021/11/04 01:20:13;;;;;;;6.90;6.40;;;8.60;99.90;;;8.78;74.96;100286.31;4822797;29;20148;-64
2021/11/04 01:22:42;;;;;;;7.00;6.50;;;8.50;99.90;;;8.60;75.42;100252.16;4822646;29;20061;-62
2021/11/04 01:25:11;;;;;;;7.60;6.95;;;8.50;99.90;;;8.91;75.18;100285.34;4823739;29;20417;-62
2021/11/04 01:27:40;;;;;;;8.15;7.45;;;8.50;99.90;;;9.00;75.40;100277.38;4823906;29;20053;-62
2021/11/04 01:30:10;;;;;;;7.43;6.82;;;8.70;99.90;;;8.88;75.42;100280.97;4823945;29;20446;-62
2021/11/04 01:32:39;;;;;;;6.85;6.28;;;8.60;99.90;;;8.82;74.97;100277.50;4824060;29;20055;-63
2021/11/04 01:35:09;;;;;;;8.00;6.90;;;8.60;99.90;;;8.74;74.94;100276.69;4823872;29;20079;-62
2021/11/04 01:37:38;;;;;;;7.07;6.47;;;8.50;99.90;;;8.73;75.07;100270.53;4823660;29;20054;-62
2021/11/04 01:40:08;;;;;;;6.90;6.30;;;8.50;99.90;;;8.80;74.71;100271.38;4823538;29;20061;-62
2021/11/04 01:42:37;;;;;;;7.38;6.72;;;8.50;99.90;;;8.32;74.36;100201.41;4823556;29;20054;-62
2021/11/04 01:45:06;;;;;;;6.85;6.35;;;8.50;99.90;;;8.69;74.28;100271.44;4824000;29;20072;-64
2021/11/04 01:47:35;;;;;;;7.20;6.60;;;8.40;99.90;;;8.59;74.18;100276.78;4823448;29;20458;-62
2021/11/04 01:50:04;;;;;;;8.32;7.63;;;8.30;99.90;;;8.08;74.50;100220.81;4823314;29;20103;-62
2021/11/04 01:52:34;;;;;;;7.45;6.75;;;8.20;99.90;;;8.30;74.84;100281.34;4825481;29;20358;-62
2021/11/04 01:55:03;;;;;;;6.68;6.07;;;8.10;99.90;;;8.20;74.89;100275.19;4827008;29;20079;-62
2021/11/04 01:57:31;;;;;;;6.75;6.25;;;7.90;99.90;;;8.05;75.53;100267.38;4827142;29;20441;-63
2021/11/04 02:00:00;;;;;;;6.07;5.68;;;7.80;99.90;;;8.06;75.40;100275.25;4826823;29;20054;-61
2021/11/04 02:02:37;;;;;;;6.85;6.32;;;7.80;99.90;;;8.05;75.64;100278.75;4826815;29;20058;-62
2021/11/04 02:05:08;;;;;;;7.78;6.68;;;7.70;99.90;;;8.03;75.38;100274.41;4827045;29;20080;-61
2021/11/04 02:07:46;;;;;;;6.70;6.20;;;7.70;99.90;;;7.82;75.47;100270.06;4827288;29;20095;-62
2021/11/04 02:10:21;;;;;;;6.85;6.25;;;7.60;99.90;;;7.70;74.82;100272.75;4827362;29;20054;-62
2021/11/04 02:12:56;;;;;;;6.75;6.25;;;7.40;99.90;;;7.56;74.62;100278.91;4826663;29;20064;-62
2021/11/04 02:15:26;;;;;;;9.15;8.30;;;7.30;99.90;;;7.50;75.35;100271.91;4826611;29;20084;-62
2021/11/04 02:17:57;;;;;;;;;;;7.20;99.90;;;7.44;75.80;100260.50;4826738;29;20073;-61
2021/11/04 02:20:36;;;;;;;11.05;9.20;;;7.20;99.90;;;7.58;76.00;100269.25;4827126;29;19925;-62
2021/11/04 02:23:17;;;;;;;8.77;7.88;;;7.30;99.90;;;7.63;75.92;100271.00;4826462;29;20080;-61
2021/11/04 02:25:48;;;;;;;8.18;7.47;;;7.30;99.90;;;7.68;76.15;100266.63;4826481;29;20099;-63
2021/11/04 02:28:19;;;;;;;8.23;7.32;;;7.40;99.90;;;7.77;75.76;100270.97;4826456;29;20055;-62
2021/11/04 02:30:48;;;;;;;8.27;7.32;;;7.50;99.90;;;7.76;75.64;100263.97;4826710;29;20054;-62
2021/11/04 02:33:22;;;;;;;8.63;7.82;;;7.50;99.90;;;7.67;75.48;100267.47;4826676;29;20505;-62
2021/11/04 02:35:52;;;;;;;10.75;9.70;;;7.40;99.90;;;7.61;75.68;100262.22;4826963;29;20058;-61
2021/11/04 02:38:24;;;;;;;8.73;7.82;;;7.40;99.90;;;7.47;75.90;100263.16;4826373;29;20058;-61
2021/11/04 02:40:55;;;;;;;8.68;7.78;;;7.20;99.90;;;7.32;76.10;100261.41;4826318;29;20054;-61
2021/11/04 02:43:24;;;;;;;8.60;7.80;;;7.10;99.90;;;7.35;76.27;100264.06;4826462;29;20386;-62
2021/11/04 02:45:54;;;;;;;9.35;8.55;;;7.10;99.90;;;7.42;76.21;100264.91;4810243;29;20065;-62
2021/11/04 02:48:23;;;;;;;8.50;7.72;;;7.10;99.90;;;7.47;76.12;100261.38;4826592;29;20050;-62
2021/11/04 02:50:53;;;;;;;8.82;8.02;;;7.20;99.90;;;7.48;75.99;100263.13;4826421;29;20042;-61
2021/11/04 02:53:25;;;;;;;33.25;11.35;;;7.20;99.90;;;7.55;76.79;100258.75;4826509;29;20062;-61
2021/11/04 02:55:55;;;;;;;11.70;10.50;;;7.20;99.90;;;7.58;77.05;100259.63;4826564;29;20407;-64
2021/11/04 02:58:25;;;;;;;11.40;10.32;;;7.30;99.90;;;7.51;76.96;100265.75;4826240;29;20068;-63
2021/11/04 03:00:57;;;;;;;12.90;11.50;;;7.30;99.90;;;6.93;76.87;100159.78;4826468;29;20130;-62
2021/11/04 03:03:26;;;;;;;12.82;11.52;;;7.30;99.90;;;7.57;76.60;100267.53;4825477;29;20050;-62
2021/11/04 03:05:55;;;;;;;12.25;10.98;;;7.30;99.90;;;7.58;77.08;100269.25;4826141;29;20138;-62
2021/11/04 03:08:24;;;;;;;11.43;10.32;;;7.30;99.90;;;7.53;76.89;100260.50;4826105;29;20111;-62
2021/11/04 03:10:55;;;;;;;11.65;10.48;;;7.30;99.90;;;7.56;76.52;100271.03;4825986;29;20137;-61
2021/11/04 03:13:24;;;;;;;9.88;8.88;;;7.30;99.90;;;7.56;76.43;100279.78;4826083;29;20054;-63
2021/11/04 03:15:57;;;;;;;11.23;10.00;;;7.30;99.90;;;7.57;76.11;100278.06;4826048;29;20065;-62
2021/11/04 03:18:28;;;;;;;10.55;9.40;;;7.30;99.90;;;7.25;76.21;100238.63;4826140;29;20149;-63
2021/11/04 03:20:57;;;;;;;9.07;8.18;;;7.20;99.90;;;7.32;76.56;100281.59;4825786;29;20042;-61
2021/11/04 03:23:26;;;;;;;10.05;8.25;;;7.10;99.90;;;7.13;76.73;100283.34;4809454;29;20079;-62
2021/11/04 03:25:57;;;;;;;8.40;7.70;;;6.90;99.90;;;7.19;76.74;100286.84;4825504;29;20054;-62
2021/11/04 03:28:26;;;;;;;12.60;8.98;;;6.90;99.90;;;7.13;76.50;100293.84;4825540;29;20046;-63
2021/11/04 03:30:56;;;;;;;9.43;8.60;;;6.90;99.90;;;7.13;76.85;100297.38;4825390;29;20449;-61
2021/11/04 03:33:26;;;;;;;9.57;8.68;;;6.90;99.90;;;7.13;76.87;100297.38;4809249;29;20488;-62
2021/11/04 03:35:56;;;;;;;11.18;8.35;;;6.90;99.90;;;7.15;76.91;100289.47;4824333;29;20059;-61
2021/11/04 03:38:25;;;;;;;9.02;8.32;;;6.90;99.90;;;7.13;76.85;100288.59;4825277;29;20137;-61
2021/11/04 03:40:58;;;;;;;8.90;8.20;;;6.90;99.90;;;7.13;77.12;100286.84;4825302;29;20107;-62
2021/11/04 03:43:27;;;;;;;9.88;8.88;;;6.80;99.90;;;7.26;77.77;100285.06;4825474;29;20050;-63
2021/11/04 03:45:56;;;;;;;8.93;8.02;;;7.00;99.90;;;7.37;78.96;100287.72;4825143;29;20213;-61
2021/11/04 03:48:25;;;;;;;10.10;9.10;;;7.10;99.90;;;7.51;79.19;100294.69;4825658;29;20382;-62
2021/11/04 03:50:57;;;;;;;9.35;8.55;;;7.20;99.90;;;7.41;78.93;100287.72;4825128;29;20121;-61
2021/11/04 03:53:25;;;;;;;10.07;9.07;;;7.20;99.90;;;7.63;78.29;100297.31;4825444;29;20560;-62
2021/11/04 03:55:55;;;;;;;16.42;13.30;;;7.30;99.90;;;7.79;78.68;100291.16;4825013;29;20141;-62
2021/11/04 03:58:26;;;;;;;15.60;11.68;;;7.50;99.90;;;7.85;78.83;100311.31;4825268;29;20477;-61
2021/11/04 04:00:54;;;;;;;;;;;7.60;99.90;;;7.65;78.91;100279.78;4825292;29;20054;-61
2021/11/04 04:03:24;;;;;;;12.85;11.30;;;7.60;99.90;;;7.72;79.17;100299.06;4824767;29;19924;-62
2021/11/04 04:06:00;;;;;;;14.35;11.23;;;7.60;99.90;;;7.85;79.14;100306.94;4824840;29;20134;-62
2021/11/04 04:08:30;;;;;;;14.27;11.02;;;7.60;99.90;;;7.93;79.26;100315.69;4825084;29;20408;-61
2021/11/04 04:11:01;;;;;;;10.60;9.48;;;7.70;99.90;;;7.98;79.71;100321.81;4823841;29;20055;-62
2021/11/04 04:13:29;;;;;;;;;;;7.70;99.90;;;7.99;79.51;100312.16;4825369;29;20110;-62
2021/11/04 04:15:58;;;;;;;11.40;10.20;;;7.80;99.90;;;8.04;79.39;100319.16;4807599;29;19932;-62
2021/11/04 04:18:27;;;;;;;11.25;10.07;;;7.70;99.90;;;7.98;79.52;100297.22;4824718;29;20046;-62
2021/11/04 04:20:55;;;;;;;11.20;10.00;;;7.80;99.90;;;8.13;79.00;100312.97;4824888;29;20129;-63
2021/11/04 04:23:23;;;;;;;9.55;8.65;;;7.80;99.90;;;8.06;78.80;100317.41;4823587;29;20058;-61
2021/11/04 04:25:52;;;;;;;9.35;8.32;;;7.80;99.90;;;7.99;78.82;100320.91;4825071;29;20097;-62
2021/11/04 04:28:21;;;;;;;9.32;8.40;;;7.70;99.90;;;7.86;79.05;100323.56;4824476;29;20054;-62
2021/11/04 04:30:50;;;;;;;8.37;7.57;;;7.60;99.90;;;7.82;78.70;100327.97;4824493;29;20404;-62
2021/11/04 04:33:18;;;;;;;8.73;7.90;;;7.60;99.90;;;7.89;78.61;100318.31;4824927;29;20462;-61
2021/11/04 04:35:47;;;;;;;9.90;9.00;;;7.60;99.90;;;7.94;78.37;100322.69;4824626;29;20485;-62
2021/11/04 04:38:16;;;;;;;10.85;9.77;;;7.70;99.90;;;8.06;78.51;100321.78;4823460;29;20481;-64
2021/11/04 04:40:44;;;;;;;11.13;10.02;;;7.80;99.90;;;8.24;79.20;100327.00;4823315;29;20051;-61
2021/11/04 04:43:12;;;;;;;10.68;9.65;;;7.90;99.90;;;8.40;79.58;100330.47;4824444;29;20091;-62
2021/11/04 04:45:43;;;;;;;10.23;9.23;;;8.10;99.90;;;8.48;79.39;100323.41;4824444;29;20050;-61
2021/11/04 04:48:12;;;;;;;9.93;8.93;;;8.20;99.90;;;8.47;79.14;100308.47;4824606;29;20057;-62
2021/11/04 04:50:41;;;;;;;10.48;9.57;;;8.30;99.90;;;8.67;78.74;100339.09;4824207;29;20043;-61
2021/11/04 04:53:10;;;;;;;10.23;9.23;;;8.40;99.90;;;8.66;78.84;100336.47;4824182;29;20062;-62
2021/11/04 04:55:38;;;;;;;10.23;9.30;;;8.40;99.90;;;8.66;78.32;100340.00;4823177;29;20066;-62
2021/11/04 04:58:07;;;;;;;8.80;8.00;;;8.50;99.90;;;8.46;77.51;100346.25;4824647;29;20120;-61
2021/11/04 05:00:36;;;;;;;10.27;8.63;;;8.30;99.90;;;8.34;77.41;100341.03;4824311;29;20125;-61
2021/11/04 05:03:06;;;;;;;8.63;7.80;;;8.20;99.90;;;8.30;77.47;100342.81;4823873;29;20050;-61
2021/11/04 05:05:34;;;;;;;9.32;8.52;;;8.10;99.90;;;8.25;78.17;100341.94;4824089;29;20485;-61
2021/11/04 05:08:03;;;;;;;9.77;8.90;;;8.00;99.90;;;8.35;77.86;100342.78;4824154;29;20049;-63
2021/11/04 05:10:31;;;;;;;9.43;8.55;;;8.10;99.90;;;8.38;78.40;100342.78;4823917;29;20210;-64
2021/11/04 05:13:00;;;;;;;8.98;8.18;;;8.20;99.90;;;8.31;78.28;100341.03;4824126;29;20054;-63
2021/11/04 05:15:28;;;;;;;8.73;7.93;;;8.10;99.90;;;8.34;77.88;100356.84;4823875;29;20073;-63
2021/11/04 05:17:57;;;;;;;9.10;8.30;;;8.10;99.90;;;8.28;78.67;100354.22;4823863;29;20551;-63
2021/11/04 05:20:27;;;;;;;9.60;8.80;;;8.00;99.90;;;8.30;78.73;100356.00;4824351;29;20078;-62
2021/11/04 05:22:55;;;;;;;9.43;8.20;;;8.10;99.90;;;8.35;78.63;100350.69;4823622;29;20115;-63
2021/11/04 05:25:23;;;;;;;8.32;7.60;;;8.10;99.90;;;8.37;78.73;100359.47;4822801;29;20088;-63
2021/11/04 05:27:52;;;;;;;9.10;8.30;;;8.10;99.90;;;8.30;78.40;100356.00;4823981;29;20058;-63
2021/11/04 05:30:21;;;;;;;8.23;7.53;;;8.00;99.90;;;8.29;78.56;100345.44;4823862;29;20133;-64
2021/11/04 05:32:50;;;;;;;8.00;7.20;;;8.00;99.90;;;8.25;78.61;100349.84;4823818;29;20524;-64
2021/11/04 05:35:19;;;;;;;8.80;8.10;;;8.00;99.90;;;8.25;78.96;100343.69;4823740;29;20070;-63
2021/11/04 05:37:49;;;;;;;7.93;7.22;;;8.00;99.90;;;7.89;78.95;100269.19;4823756;29;20054;-63
2021/11/04 05:40:17;;;;;;;9.32;8.50;;;8.10;99.90;;;8.47;79.07;100348.00;4824018;29;20058;-63
2021/11/04 05:42:46;;;;;;;8.40;7.63;;;8.10;99.90;;;8.55;78.79;100344.47;4823948;29;20038;-63
2021/11/04 05:45:14;;;;;;;8.65;7.90;;;8.30;99.90;;;8.61;78.98;100352.34;4823657;29;20054;-63
2021/11/04 05:47:43;;;;;;;10.35;8.10;;;8.30;99.90;;;8.65;79.37;100353.19;4807866;29;20221;-64
2021/11/04 05:50:12;;;;;;;7.85;7.15;;;8.40;99.90;;;8.69;79.64;100368.13;4824603;29;20142;-64
2021/11/04 05:52:40;;;;;;;8.82;8.02;;;8.40;99.90;;;8.70;79.08;100369.84;4824350;29;20042;-63
2021/11/04 05:55:10;;;;;;;9.48;8.48;;;8.40;99.90;;;8.71;79.47;100366.34;4823820;29;20454;-63
2021/11/04 05:57:38;;;;;;;11.45;8.20;;;8.40;99.90;;;8.75;80.84;100384.75;4823764;29;20074;-63
2021/11/04 06:00:08;;;;;;;9.95;7.10;;;8.50;99.90;;;9.00;80.39;100378.47;4823388;29;20514;-65
2021/11/04 06:02:39;;;;;;;10.75;7.53;;;8.70;99.90;;;9.05;80.53;100367.91;4823429;29;20046;-63
2021/11/04 06:05:08;;;;;;;9.02;8.13;;;8.80;99.90;;;9.24;80.46;100377.44;4823596;29;20522;-64
2021/11/04 06:07:36;;;;;;;8.30;7.53;;;9.00;99.90;;;9.20;79.74;100373.06;4823428;29;20085;-63
2021/11/04 06:10:06;;;;;;;10.57;7.25;;;8.90;99.90;;;9.22;80.10;100383.59;4823389;29;20493;-63
2021/11/04 06:12:38;;;;;;;7.90;7.20;;;9.00;99.90;;;9.22;79.67;100379.22;4823459;29;20129;-63
2021/11/04 06:15:07;;;;;;;9.40;7.87;;;9.00;99.90;;;9.23;79.60;100373.06;4823339;29;20058;-63
2021/11/04 06:17:35;;;;;;;7.35;6.65;;;9.00;99.90;;;9.36;79.98;100380.00;4823422;29;20386;-63
2021/11/04 06:20:04;;;;;;;7.82;7.00;;;9.10;99.90;;;9.44;79.81;100383.47;4823803;29;20078;-63
2021/11/04 06:22:33;;;;;;;7.78;7.03;;;9.10;99.90;;;9.46;79.35;100386.97;4823363;29;20229;-63
2021/11/04 06:25:03;;;;;;;7.57;6.80;;;9.20;99.90;;;9.30;80.23;100387.97;4806818;29;20074;-63
2021/11/04 06:27:32;;;;;;;7.10;6.13;;;9.10;99.90;;;9.47;80.48;100390.47;4823214;29;20075;-63
2021/11/04 06:30:03;;;;;;;7.53;6.68;;;9.20;99.90;;;9.51;80.43;100393.06;4823077;29;20103;-63
2021/11/04 06:32:32;;;;;;;6.88;4.95;;;9.20;99.90;;;9.66;81.11;100390.31;4823407;29;20042;-63
2021/11/04 06:35:00;;;;;;;10.40;6.05;;;9.40;99.90;;;9.81;81.07;100390.16;4823064;29;20082;-65
2021/11/04 06:37:29;;;;;;;9.07;5.82;;;9.50;99.90;;;9.91;81.13;100386.53;4823282;29;20046;-63
2021/11/04 06:39:57;;;;;;;7.57;5.78;;;9.60;99.90;;;9.92;81.92;100398.88;4825486;29;20577;-63
2021/11/04 06:42:26;;;;;;;6.28;5.35;;;9.70;99.90;;;10.08;81.99;100401.38;4826349;29;20046;-64
2021/11/04 06:44:54;;;;;;;6.45;5.70;;;9.80;99.90;;;10.08;81.81;100401.38;4826371;29;20047;-64
2021/11/04 06:47:31;;;;;;;6.78;5.60;;;9.80;99.90;;;10.19;81.50;100413.63;4826055;29;20054;-64
2021/11/04 06:50:03;;;;;;;7.75;6.10;;;9.90;99.90;;;10.15;81.17;100408.38;4825102;29;20058;-63
2021/11/04 06:52:36;;;;;;;6.72;5.97;;;9.90;99.90;;;10.18;81.00;100413.63;4824985;29;20114;-64
2021/11/04 06:55:08;;;;;;;6.72;5.85;;;9.90;99.90;;;10.11;80.68;100417.22;4806661;29;20516;-63
2021/11/04 06:57:42;;;;;;;5.88;5.38;;;9.80;99.90;;;9.98;80.69;100408.50;4807913;29;20055;-64
2021/11/04 07:00:13;;;;;;;6.70;6.10;;;9.80;99.90;;;10.07;80.26;100420.75;4808132;29;20051;-63
2021/11/04 07:02:46;;;;;;;6.40;5.80;;;9.80;99.90;;;9.98;80.21;100422.59;4808075;29;20058;-65
2021/11/04 07:05:15;;;;;;;8.82;5.32;;;9.70;99.90;;;10.05;80.80;100431.31;4807730;29;20115;-64
2021/11/04 07:07:46;;;;;;;9.57;5.82;;;9.70;99.90;;;10.08;80.54;100430.44;4807839;29;20421;-63
2021/11/04 07:10:19;;;;;;;7.22;6.18;;;9.80;99.90;;;10.04;80.94;100438.38;4807606;29;20047;-63
2021/11/04 07:12:49;;;;;;;7.10;6.47;;;9.80;99.90;;;10.15;80.91;100450.66;4807647;29;20046;-63
2021/11/04 07:15:19;;;;;;;;;;;9.80;99.90;;;10.09;80.57;100448.03;4808042;29;20058;-64
2021/11/04 07:17:50;;;;;;;8.65;5.53;;;9.80;99.90;;;10.15;80.89;100438.31;4807556;29;20019;-64
2021/11/04 07:20:19;;;;;;;;;;;9.90;99.90;;;10.25;80.55;100439.09;4807980;29;20055;-65
2021/11/04 07:22:51;;;;;;;6.00;5.35;;;10.00;99.90;;;10.43;80.75;100447.72;4807723;29;20336;-64
2021/11/04 07:25:22;;;;;;;6.30;4.45;;;10.10;99.90;;;10.52;81.36;100444.09;4807599;29;20050;-64
2021/11/04 07:27:58;;;;;;;7.13;5.63;;;10.30;99.90;;;10.62;81.98;100451.03;4807445;29;20050;-64
2021/11/04 07:30:28;;;;;;;8.82;6.03;;;10.40;99.90;;;10.44;82.42;100443.31;4821382;29;20058;-64
2021/11/04 07:33:01;;;;;;;8.18;5.13;;;10.40;99.90;;;10.18;82.96;100379.28;4806220;29;20055;-64
2021/11/04 07:35:32;;;;;;;6.18;4.15;;;10.40;99.90;;;10.84;83.39;100471.03;4807506;29;20058;-65
2021/11/04 07:38:01;;;;;;;4.15;3.75;;;10.50;99.90;;;10.95;83.41;100466.53;4807205;29;20051;-64
2021/11/04 07:40:31;;;;;;;6.47;4.57;;;10.60;99.90;;;11.05;83.30;100472.56;4807371;29;20042;-65
2021/11/04 07:43:00;;;;;;;5.10;4.47;;;10.70;99.90;;;11.12;83.02;100469.81;4807038;29;20039;-65
2021/11/04 07:45:31;;;;;;;8.35;4.38;;;10.80;99.90;;;11.06;82.58;100461.97;4807159;29;20418;-64
2021/11/04 07:48:01;;;;;;;7.40;4.32;;;10.80;99.90;;;11.03;82.67;100464.66;4807309;29;20187;-64
2021/11/04 07:50:32;;;;;;;4.88;4.22;;;10.80;99.90;;;11.10;82.86;100457.50;4807335;29;20497;-65
2021/11/04 07:53:01;;;;;;;7.20;4.32;;;10.80;99.90;;;11.12;82.81;100458.34;4807063;29;20051;-66
2021/11/04 07:55:29;;;;;;;7.88;4.28;;;10.90;99.90;;;11.25;83.56;100467.88;4805661;29;20101;-64
2021/11/04 07:57:58;;;;;;;6.18;4.13;;;11.00;99.90;;;11.34;84.29;100452.72;4806905;29;20051;-64
2021/11/04 08:00:29;;;;;;;6.05;4.30;;;11.10;99.90;;;11.59;84.75;100456.75;4806862;29;20125;-65
2021/11/04 08:02:57;;;;;;;5.03;4.47;;;11.30;99.90;;;11.76;84.58;100452.16;4806868;29;20090;-65
2021/11/04 08:05:28;;;;;;;5.57;3.35;;;11.50;99.90;;;11.93;84.03;100461.56;4807063;29;20131;-64
2021/11/04 08:07:56;;;;;;;6.60;4.38;;;11.70;99.90;;;12.05;83.89;100461.38;4806834;29;20103;-64
2021/11/04 08:10:29;;;;;;;6.38;3.88;;;11.80;99.90;;;12.17;83.53;100450.56;4806631;29;20042;-64
2021/11/04 08:13:03;;;;;;;8.75;3.78;;;11.90;99.90;;;12.30;83.57;100446.78;4806545;29;20046;-64
2021/11/04 08:15:31;;;;;;;7.32;3.97;;;12.10;99.90;;;12.26;83.45;100424.75;4806642;29;20055;-64
2021/11/04 08:18:00;;;;;;;6.38;3.92;;;12.20;99.90;;;12.55;83.05;100456.03;4806493;29;20103;-65
2021/11/04 08:20:31;;;;;;;10.48;4.10;;;12.30;99.90;;;12.63;82.49;100452.34;4806490;29;20455;-64
2021/11/04 08:23:01;;;;;;;6.28;3.50;;;12.40;99.90;;;12.69;82.35;100449.56;4806469;29;20042;-64
2021/11/04 08:25:30;;;;;;;6.18;3.80;;;12.50;99.90;;;12.78;82.04;100456.47;4806374;29;20482;-65
2021/11/04 08:27:58;;;;;;;6.95;3.75;;;12.60;99.90;;;12.84;82.10;100451.03;4806586;29;20085;-65
2021/11/04 08:30:27;;;;;;;7.57;3.78;;;12.60;99.90;;;13.18;83.37;100457.41;4806320;29;20502;-63
2021/11/04 08:32:55;;;;;;;12.27;3.70;;;12.90;99.90;;;13.71;84.01;100461.50;4806577;29;20100;-65
2021/11/04 08:35:24;;;;;;;6.40;3.60;;;13.40;99.90;;;14.32;83.41;100477.72;4805301;29;20051;-65
2021/11/04 08:37:55;;;;;;;11.70;3.47;;;14.10;99.90;;;14.65;80.75;100475.09;4806300;29;20458;-64
2021/11/04 08:40:23;;;;;;;8.02;3.90;;;14.50;99.90;;;14.82;78.57;100478.16;4806354;29;20115;-63
2021/11/04 08:42:52;;;;;;;10.50;3.65;;;14.60;99.90;;;14.81;76.85;100479.06;4806256;29;20049;-63
2021/11/04 08:45:20;;;;;;;9.88;3.97;;;14.60;99.90;;;14.73;76.40;100481.94;4806188;29;20070;-64
2021/11/04 08:47:48;;;;;;;7.82;3.40;;;14.60;99.90;;;14.44;76.19;100481.84;4806430;29;20047;-65
2021/11/04 08:50:17;;;;;;;6.93;3.60;;;14.30;99.90;;;14.29;77.40;100476.94;4806175;29;20470;-63
2021/11/04 08:52:51;;;;;;;11.68;3.70;;;14.00;99.90;;;14.48;78.51;100473.75;4806368;29;20461;-63
2021/11/04 08:55:23;;;;;;;8.27;3.53;;;14.20;99.90;;;14.75;77.64;100501.41;4822201;29;20069;-61
2021/11/04 08:57:52;;;;;;;4.72;3.28;;;14.40;99.90;;;14.69;77.06;100493.59;4825112;29;20061;-64
2021/11/04 09:00:21;;;;;;;6.93;3.20;;;14.50;99.90;;;14.56;76.49;100480.66;4824545;29;20054;-61
2021/11/04 09:02:50;;;;;;;4.65;3.25;;;14.40;99.90;;;14.51;76.26;100494.09;4823926;29;20053;-62
2021/11/04 09:05:19;;;;;;;4.43;3.05;;;14.30;99.90;;;14.49;76.37;100501.25;4824196;29;20448;-63
2021/11/04 09:07:48;;;;;;;4.90;3.60;;;14.10;99.90;;;14.36;77.09;100491.84;4824054;29;20046;-63
2021/11/04 09:10:20;;;;;;;4.93;3.47;;;14.00;99.90;;;14.12;77.65;100487.97;4824311;29;20050;-62
2021/11/04 09:12:51;;;;;;;3.47;2.88;;;13.80;99.90;;;13.86;77.83;100494.84;4823039;29;20054;-63
2021/11/04 09:15:19;;;;;;;6.40;3.40;;;13.60;99.90;;;13.57;79.43;100506.13;4822937;29;20046;-65
2021/11/04 09:17:47;;;;;;;10.40;3.38;;;13.30;99.90;;;13.37;80.54;100517.22;4823984;29;20074;-70
2021/11/04 09:20:19;;;;;;;7.82;3.55;;;13.20;99.90;;;13.51;79.84;100520.44;4823905;29;20107;-71
2021/11/04 09:22:50;;;;;;;6.30;3.33;;;13.20;99.90;;;13.39;80.05;100515.38;4823809;29;20450;-70
2021/11/04 09:25:22;;;;;;;4.97;3.83;;;13.10;99.90;;;13.33;80.10;100510.22;4823577;29;20057;-71
2021/11/04 09:27:56;;;;;;;7.72;3.55;;;13.10;99.90;;;13.23;79.82;100518.41;4823805;29;20046;-70
2021/11/04 09:30:26;;;;;;;8.95;3.58;;;13.10;99.90;;;13.36;79.22;100519.88;4823805;29;20051;-69
2021/11/04 09:32:55;;;;;;;13.52;3.92;;;13.10;99.90;;;13.40;79.16;100525.13;4823805;29;20504;-67
2021/11/04 09:35:25;;;;;;;6.20;3.10;;;13.20;99.90;;;13.33;79.34;100526.16;4823739;29;20393;-68
2021/11/04 09:37:54;;;;;;;4.80;3.38;;;13.10;99.90;;;13.30;79.47;100526.22;4822649;29;20111;-69
2021/11/04 09:40:22;;;;;;;7.55;3.60;;;13.10;99.90;;;13.29;78.94;100524.47;4823914;29;20050;-68
2021/11/04 09:42:52;;;;;;;4.25;3.30;;;13.10;99.90;;;13.01;79.72;100502.00;4823996;29;20404;-69
2021/11/04 09:45:21;;;;;;;3.58;3.28;;;12.90;99.90;;;12.74;79.68;100496.38;4823464;29;20097;-68
2021/11/04 09:47:49;;;;;;;3.38;2.85;;;12.60;99.90;;;12.63;80.12;100486.84;4823746;29;20034;-68
2021/11/04 09:50:19;;;;;;;3.45;2.85;;;12.40;99.90;;;12.32;80.46;100487.41;4823456;29;20069;-68
2021/11/04 09:52:54;;;;;;;4.30;3.13;;;12.20;99.90;;;12.40;81.43;100491.69;4823788;29;20077;-67
2021/11/04 09:55:27;;;;;;;5.88;3.13;;;12.10;99.90;;;12.34;81.36;100491.78;4806859;29;20062;-68
2021/11/04 09:58:01;;;;;;;3.40;3.05;;;12.10;99.90;;;12.38;81.05;100497.91;4823533;29;20050;-66
2021/11/04 10:00:36;;;;;;;3.20;2.90;;;12.10;99.90;;;12.34;81.86;100501.53;4823413;29;20577;-68
2021/11/04 10:03:08;;;;;;;3.20;2.92;;;12.10;99.90;;;12.37;82.17;100501.44;4823422;29;20058;-68
2021/11/04 10:05:42;;;;;;;3.22;3.03;;;12.10;99.90;;;12.46;81.58;100496.00;4823846;29;20447;-68
2021/11/04 10:08:14;;;;;;;3.58;3.28;;;12.10;99.90;;;12.38;82.21;100493.50;4823337;29;20046;-68
2021/11/04 10:10:43;;;;;;;4.15;3.28;;;12.10;99.90;;;12.32;82.36;100498.91;4823287;29;20050;-69
2021/11/04 10:13:14;;;;;;;4.32;3.20;;;12.00;99.90;;;12.37;82.66;100505.00;4823442;29;20082;-68
2021/11/04 10:15:43;;;;;;;;;;;12.00;99.90;;;12.43;82.83;100509.31;4826977;29;20070;-68
2021/11/04 10:18:15;;;;;;;6.93;3.08;;;12.10;99.90;;;12.61;82.18;100523.13;4827138;29;19959;-68
2021/11/04 10:20:53;;;;;;;7.68;3.20;;;12.20;99.90;;;12.59;82.07;100524.06;4826454;29;20054;-68
2021/11/04 10:23:22;;;;;;;3.63;3.25;;;12.30;99.90;;;12.54;82.04;100518.81;4826750;29;20055;-68
2021/11/04 10:25:51;;;;;;;5.40;3.38;;;12.30;99.90;;;12.67;82.22;100527.44;4826362;29;20399;-69
2021/11/04 10:28:30;;;;;;;4.47;3.40;;;12.40;99.90;;;12.68;82.05;100521.22;4826623;29;20411;-69
2021/11/04 10:31:00;;;;;;;5.93;3.42;;;12.40;99.90;;;12.53;83.25;100524.16;4826605;29;20465;-69